메인 페이지
METAR-TAF:

METAR-TAF

공항 :

Mammoth Yosemite Airport

Mammoth Lakes, 캘리포니아, 미국

위도: 37-37N, 경도: 118-50W, 고도: 2173m

현재 날씨관측

예보는 24분 전, 22:35시(UTC)에 발표되었습니다.
남남서10kt, 순간 최대 풍속 14kt
온도 13°C
습도 62%
기압 1021 hPa
시정: 16.1km
고도 6500ft 상공 구름 보통

METAR: KMMH 272235Z AUTO 20010G14KT 10SM SCT065 13/06 A3016 RMK AO2 T01290055

시각: 15:59 (22:59 UTC)

예보

예보는 5 시간 35분 전, 17:24시(UTC)에 발표되었습니다.
예보 대상 시간: 27일 18시부터 28일 18시까지 (UTC)
북북서11kt
시정: 10km
고도 3500ft 상공 구름 보통
고도 6000ft 상공 구름 많음
27일 2200시부터 (UTC)
북북서11kt, 순간 최대 풍속 19kt
시정: 10km
고도 3000ft 상공 구름 보통
고도 6000ft 상공 구름 많음
시계 내 소나기
28일 0200시부터 (UTC)
서북서8kt
시정: 10km
고도 6000ft 상공 구름 보통
고도 15000ft 상공 구름 많음
28일 0500시부터 (UTC)
서북서8kt
시정: 10km
고도 15000ft 상공 구름 보통
28일 1000시부터 (UTC)
7kt
시정: 10km
고도 15000ft 상공 구름 조금

TAF: KMMH 271724Z 2718/2818 33011KT P6SM SCT035 BKN060 FM272200 34011G19KT P6SM VCSH SCT030 BKN060 FM280200 30008KT P6SM SCT060 BKN150 FM280500 29008KT P6SM SCT150 FM281000 28007KT P6SM FEW150

4,000개 이상의 공항 관측 자료 및 예보 (METAR 및 TAF 보고).

지도상에서 검색 가능한 기상관측소가 노란 점과 빨간 점으로 표시되어 있습니다.

기상관측소 명을 보려면 표시 위로 마우스를 이동하세요.

날씨 관측과 예보를 보려면 클릭하세요.

지도 변경 : 확대하려면 엑스 표시가 있는 녹색 버튼, 축소하려면 빼기 표시가 있는 녹색 버튼, 다음 페이지의 지도를 보려면 녹색 화살표를 클릭하세요.


METAR-TAF: